sensor_id;sensor_type;location;lat;lon;timestamp;pressure;altitude;pressure_sealevel;temperature;humidity
7746;BME280;3917;42.748;23.278;2022-09-14T06:56:45;95521.94;;;27.15;32.61
7746;BME280;3917;42.748;23.278;2022-09-14T06:59:13;95511.91;;;25.31;35.76
7746;BME280;3917;42.748;23.278;2022-09-14T07:01:41;95524.53;;;28.26;30.61
7746;BME280;3917;42.748;23.278;2022-09-14T07:04:08;95519.13;;;28.68;29.91
7746;BME280;3917;42.748;23.278;2022-09-14T07:06:38;95505.34;;;29.63;28.88
7746;BME280;3917;42.748;23.278;2022-09-14T07:09:06;95515.28;;;26.42;33.72
7746;BME280;3917;42.748;23.278;2022-09-14T07:11:33;95513.69;;;29.21;29.37
7746;BME280;3917;42.748;23.278;2022-09-14T07:14:01;95516.09;;;28.14;30.34
7746;BME280;3917;42.748;23.278;2022-09-14T07:16:30;95502.66;;;28.33;30.58
7746;BME280;3917;42.748;23.278;2022-09-14T07:18:59;95462.94;;;28.12;30.59
7746;BME280;3917;42.748;23.278;2022-09-14T07:21:28;95506.16;;;27.50;31.16
7746;BME280;3917;42.748;23.278;2022-09-14T07:23:55;95508.53;;;27.68;31.17
7746;BME280;3917;42.748;23.278;2022-09-14T07:26:23;95508.72;;;30.13;28.33
7746;BME280;3917;42.748;23.278;2022-09-14T07:28:53;95487.25;;;32.84;25.04
7746;BME280;3917;42.748;23.278;2022-09-14T07:31:24;95498.84;;;33.02;24.40
7746;BME280;3917;42.748;23.278;2022-09-14T07:33:51;95498.66;;;29.76;28.17
7746;BME280;3917;42.748;23.278;2022-09-14T07:36:19;95485.09;;;30.80;27.19
7746;BME280;3917;42.748;23.278;2022-09-14T07:38:47;95495.44;;;30.91;27.98
7746;BME280;3917;42.748;23.278;2022-09-14T07:41:14;95492.84;;;29.15;29.17
7746;BME280;3917;42.748;23.278;2022-09-14T07:43:40;95492.41;;;29.79;28.53
7746;BME280;3917;42.748;23.278;2022-09-14T07:46:07;95499.81;;;26.98;33.33
7746;BME280;3917;42.748;23.278;2022-09-14T07:48:35;95486.88;;;28.55;30.51
7746;BME280;3917;42.748;23.278;2022-09-14T07:51:04;95492.53;;;30.88;27.45
7746;BME280;3917;42.748;23.278;2022-09-14T07:53:34;95489.13;;;32.02;26.01
7746;BME280;3917;42.748;23.278;2022-09-14T07:56:03;95497.75;;;33.60;24.12
7746;BME280;3917;42.748;23.278;2022-09-14T07:58:30;95479.13;;;33.49;24.87
7746;BME280;3917;42.748;23.278;2022-09-14T08:00:57;95490.00;;;33.92;23.35
7746;BME280;3917;42.748;23.278;2022-09-14T08:03:25;95483.16;;;31.32;26.05
7746;BME280;3917;42.748;23.278;2022-09-14T08:05:58;95499.50;;;34.52;23.26
7746;BME280;3917;42.748;23.278;2022-09-14T08:08:30;95493.75;;;34.91;22.25
7746;BME280;3917;42.748;23.278;2022-09-14T08:11:03;95487.44;;;36.16;20.89
7746;BME280;3917;42.748;23.278;2022-09-14T08:13:31;95488.03;;;33.93;23.27
7746;BME280;3917;42.748;23.278;2022-09-14T08:15:58;95484.03;;;33.17;24.16
7746;BME280;3917;42.748;23.278;2022-09-14T08:18:26;95485.34;;;30.26;27.67
7746;BME280;3917;42.748;23.278;2022-09-14T08:20:53;95494.69;;;31.19;26.37
7746;BME280;3917;42.748;23.278;2022-09-14T08:23:22;95478.44;;;33.94;23.29
7746;BME280;3917;42.748;23.278;2022-09-14T08:25:49;95491.91;;;32.96;24.30
7746;BME280;3917;42.748;23.278;2022-09-14T08:28:17;95485.59;;;33.91;23.65
7746;BME280;3917;42.748;23.278;2022-09-14T08:30:44;95491.72;;;31.51;26.25
7746;BME280;3917;42.748;23.278;2022-09-14T08:33:11;95477.88;;;32.77;24.41
7746;BME280;3917;42.748;23.278;2022-09-14T08:35:41;95487.69;;;30.97;26.91
7746;BME280;3917;42.748;23.278;2022-09-14T08:38:08;95478.72;;;31.71;26.75
7746;BME280;3917;42.748;23.278;2022-09-14T08:40:43;95465.47;;;32.74;25.09
7746;BME280;3917;42.748;23.278;2022-09-14T08:43:11;95467.84;;;31.26;26.81
7746;BME280;3917;42.748;23.278;2022-09-14T08:45:39;95470.22;;;33.82;23.81
7746;BME280;3917;42.748;23.278;2022-09-14T08:48:21;95465.00;;;32.88;25.59
7746;BME280;3917;42.748;23.278;2022-09-14T08:50:49;95458.00;;;32.97;24.45
7746;BME280;3917;42.748;23.278;2022-09-14T08:53:19;95461.09;;;30.87;27.33
7746;BME280;3917;42.748;23.278;2022-09-14T08:55:48;95467.72;;;33.38;24.90
7746;BME280;3917;42.748;23.278;2022-09-14T08:58:26;95460.84;;;35.40;22.73
7746;BME280;3917;42.748;23.278;2022-09-14T09:01:01;95461.63;;;33.33;24.46
7746;BME280;3917;42.748;23.278;2022-09-14T09:03:36;95458.59;;;33.60;24.86
7746;BME280;3917;42.748;23.278;2022-09-14T09:06:14;95450.22;;;36.23;22.04
7746;BME280;3917;42.748;23.278;2022-09-14T09:08:51;95458.41;;;35.35;22.32
7746;BME280;3917;42.748;23.278;2022-09-14T09:11:25;95453.53;;;35.32;22.97
7746;BME280;3917;42.748;23.278;2022-09-14T09:13:53;95437.25;;;37.89;20.04
7746;BME280;3917;42.748;23.278;2022-09-14T09:16:23;95443.50;;;34.75;23.26
7746;BME280;3917;42.748;23.278;2022-09-14T09:18:55;95443.97;;;36.03;21.68
7746;BME280;3917;42.748;23.278;2022-09-14T09:21:27;95446.31;;;35.31;22.53
7746;BME280;3917;42.748;23.278;2022-09-14T09:23:57;95436.63;;;33.82;24.07
7746;BME280;3917;42.748;23.278;2022-09-14T09:26:37;95421.50;;;33.63;24.95
7746;BME280;3917;42.748;23.278;2022-09-14T09:29:07;95413.84;;;33.03;25.79
7746;BME280;3917;42.748;23.278;2022-09-14T09:31:38;95439.00;;;35.23;23.38
7746;BME280;3917;42.748;23.278;2022-09-14T09:34:09;95418.25;;;33.81;24.28
7746;BME280;3917;42.748;23.278;2022-09-14T09:36:39;95423.34;;;33.98;23.93
7746;BME280;3917;42.748;23.278;2022-09-14T09:39:07;95415.50;;;34.75;22.58
7746;BME280;3917;42.748;23.278;2022-09-14T09:41:42;95406.81;;;33.28;24.80
7746;BME280;3917;42.748;23.278;2022-09-14T09:44:10;95408.50;;;32.28;26.02
7746;BME280;3917;42.748;23.278;2022-09-14T09:46:38;95402.13;;;35.54;22.50
7746;BME280;3917;42.748;23.278;2022-09-14T09:49:15;95412.50;;;36.68;20.54
7746;BME280;3917;42.748;23.278;2022-09-14T09:51:43;95413.75;;;36.81;21.07
7746;BME280;3917;42.748;23.278;2022-09-14T09:54:23;95413.97;;;34.81;22.64
7746;BME280;3917;42.748;23.278;2022-09-14T09:56:54;95405.44;;;35.30;21.64
7746;BME280;3917;42.748;23.278;2022-09-14T09:59:27;95402.09;;;36.75;20.37
7746;BME280;3917;42.748;23.278;2022-09-14T10:01:54;95402.03;;;36.17;21.08
7746;BME280;3917;42.748;23.278;2022-09-14T10:04:24;95390.41;;;37.42;19.91
7746;BME280;3917;42.748;23.278;2022-09-14T10:06:52;95386.66;;;38.35;19.66
7746;BME280;3917;42.748;23.278;2022-09-14T10:09:20;95379.69;;;35.91;20.97
7746;BME280;3917;42.748;23.278;2022-09-14T10:11:57;95376.97;;;33.97;22.84
7746;BME280;3917;42.748;23.278;2022-09-14T10:14:28;95376.97;;;33.74;22.80
7746;BME280;3917;42.748;23.278;2022-09-14T10:17:07;95373.25;;;33.47;23.35
7746;BME280;3917;42.748;23.278;2022-09-14T10:19:45;95358.66;;;33.57;23.06
7746;BME280;3917;42.748;23.278;2022-09-14T10:22:17;95346.56;;;33.95;21.47
7746;BME280;3917;42.748;23.278;2022-09-14T10:24:54;95351.66;;;33.67;21.13
7746;BME280;3917;42.748;23.278;2022-09-14T10:27:35;95364.47;;;32.22;22.94
7746;BME280;3917;42.748;23.278;2022-09-14T10:30:05;95370.47;;;30.26;25.09
7746;BME280;3917;42.748;23.278;2022-09-14T10:32:34;95357.28;;;29.29;25.30
7746;BME280;3917;42.748;23.278;2022-09-14T10:35:10;95353.03;;;29.56;25.69
7746;BME280;3917;42.748;23.278;2022-09-14T10:37:45;95357.28;;;29.29;25.85
7746;BME280;3917;42.748;23.278;2022-09-14T10:40:18;95358.03;;;27.56;28.31
7746;BME280;3917;42.748;23.278;2022-09-14T10:43:02;95335.81;;;27.64;28.25
7746;BME280;3917;42.748;23.278;2022-09-14T10:45:35;95353.84;;;27.79;28.48
7746;BME280;3917;42.748;23.278;2022-09-14T10:48:26;95357.94;;;28.02;27.64
7746;BME280;3917;42.748;23.278;2022-09-14T10:51:04;95355.69;;;28.04;28.05
7746;BME280;3917;42.748;23.278;2022-09-14T10:53:41;95359.38;;;27.79;27.92
7746;BME280;3917;42.748;23.278;2022-09-14T10:56:16;95351.97;;;27.54;27.61
7746;BME280;3917;42.748;23.278;2022-09-14T10:59:12;95343.19;;;27.52;29.02
7746;BME280;3917;42.748;23.278;2022-09-14T11:01:58;95347.47;;;27.41;29.47
7746;BME280;3917;42.748;23.278;2022-09-14T11:04:52;95335.38;;;27.54;28.00
7746;BME280;3917;42.748;23.278;2022-09-14T11:07:29;95348.09;;;27.84;27.97
7746;BME280;3917;42.748;23.278;2022-09-14T11:10:04;95337.47;;;27.57;28.25
7746;BME280;3917;42.748;23.278;2022-09-14T11:12:50;95348.66;;;27.69;28.25
7746;BME280;3917;42.748;23.278;2022-09-14T11:15:28;95345.31;;;27.84;28.62
7746;BME280;3917;42.748;23.278;2022-09-14T11:18:10;95312.72;;;27.81;27.89
7746;BME280;3917;42.748;23.278;2022-09-14T11:20:44;95339.31;;;27.36;28.64
7746;BME280;3917;42.748;23.278;2022-09-14T11:23:25;95350.38;;;27.36;28.66
7746;BME280;3917;42.748;23.278;2022-09-14T11:25:58;95332.78;;;27.49;30.10
7746;BME280;3917;42.748;23.278;2022-09-14T11:28:31;95337.56;;;27.69;29.31
7746;BME280;3917;42.748;23.278;2022-09-14T11:31:06;95341.72;;;27.92;28.04
7746;BME280;3917;42.748;23.278;2022-09-14T11:33:43;95306.00;;;27.61;28.21
7746;BME280;3917;42.748;23.278;2022-09-14T11:36:18;95318.84;;;27.95;28.75
7746;BME280;3917;42.748;23.278;2022-09-14T11:38:50;95318.09;;;27.86;28.59
7746;BME280;3917;42.748;23.278;2022-09-14T11:41:31;95317.25;;;27.56;28.88
7746;BME280;3917;42.748;23.278;2022-09-14T11:44:04;95290.28;;;27.45;30.24
7746;BME280;3917;42.748;23.278;2022-09-14T11:46:35;95294.69;;;27.46;30.49
7746;BME280;3917;42.748;23.278;2022-09-14T11:49:11;95302.84;;;27.71;29.90
7746;BME280;3917;42.748;23.278;2022-09-14T11:51:45;95288.88;;;27.21;29.76
7746;BME280;3917;42.748;23.278;2022-09-14T11:54:20;95266.81;;;27.04;29.83
7746;BME280;3917;42.748;23.278;2022-09-14T11:56:52;95311.47;;;27.32;29.57
7746;BME280;3917;42.748;23.278;2022-09-14T11:59:48;95303.31;;;27.36;30.90
7746;BME280;3917;42.748;23.278;2022-09-14T12:02:56;95305.38;;;27.56;29.99
7746;BME280;3917;42.748;23.278;2022-09-14T12:05:34;95291.34;;;27.61;29.96
7746;BME280;3917;42.748;23.278;2022-09-14T12:08:38;95299.34;;;27.54;30.28
7746;BME280;3917;42.748;23.278;2022-09-14T12:11:28;95302.72;;;27.68;30.24
7746;BME280;3917;42.748;23.278;2022-09-14T12:14:27;95309.19;;;27.72;29.38
7746;BME280;3917;42.748;23.278;2022-09-14T12:17:16;95305.09;;;27.49;30.83
7746;BME280;3917;42.748;23.278;2022-09-14T12:19:45;95304.13;;;27.45;30.80
7746;BME280;3917;42.748;23.278;2022-09-14T12:22:35;95290.16;;;27.24;30.38
7746;BME280;3917;42.748;23.278;2022-09-14T12:25:14;95288.81;;;27.39;30.98
7746;BME280;3917;42.748;23.278;2022-09-14T12:27:43;95296.50;;;27.71;31.10
7746;BME280;3917;42.748;23.278;2022-09-14T12:30:32;95292.88;;;27.79;30.34
7746;BME280;3917;42.748;23.278;2022-09-14T12:33:00;95290.31;;;27.74;29.96
7746;BME280;3917;42.748;23.278;2022-09-14T12:35:47;95278.91;;;27.67;30.75
7746;BME280;3917;42.748;23.278;2022-09-14T12:39:05;95281.09;;;27.82;30.65
7746;BME280;3917;42.748;23.278;2022-09-14T12:44:38;95275.28;;;27.96;31.29
7746;BME280;3917;42.748;23.278;2022-09-14T12:50:27;95264.47;;;28.11;30.47
7746;BME280;3917;42.748;23.278;2022-09-14T12:55:54;95288.06;;;28.17;30.29
7746;BME280;3917;42.748;23.278;2022-09-14T12:58:45;95274.69;;;27.90;30.00
7746;BME280;3917;42.748;23.278;2022-09-14T13:01:25;95249.06;;;27.72;29.47
7746;BME280;3917;42.748;23.278;2022-09-14T13:03:55;95279.91;;;27.92;30.30
7746;BME280;3917;42.748;23.278;2022-09-14T13:06:24;95287.03;;;28.01;31.09
7746;BME280;3917;42.748;23.278;2022-09-14T13:08:56;95281.66;;;27.96;29.91
7746;BME280;3917;42.748;23.278;2022-09-14T13:11:29;95287.81;;;28.10;30.66
7746;BME280;3917;42.748;23.278;2022-09-14T13:13:56;95287.50;;;28.03;30.85
7746;BME280;3917;42.748;23.278;2022-09-14T13:16:41;95283.97;;;27.94;30.43
7746;BME280;3917;42.748;23.278;2022-09-14T13:19:27;95288.53;;;27.90;30.92
7746;BME280;3917;42.748;23.278;2022-09-14T13:21:56;95217.66;;;27.31;31.45
7746;BME280;3917;42.748;23.278;2022-09-14T13:24:29;95289.88;;;27.84;31.01
7746;BME280;3917;42.748;23.278;2022-09-14T13:27:01;95284.34;;;27.84;31.75
7746;BME280;3917;42.748;23.278;2022-09-14T13:29:28;95258.47;;;27.80;31.51
7746;BME280;3917;42.748;23.278;2022-09-14T13:31:57;95281.50;;;27.72;31.72
7746;BME280;3917;42.748;23.278;2022-09-14T13:34:25;95245.50;;;27.43;31.71
7746;BME280;3917;42.748;23.278;2022-09-14T13:36:54;95268.50;;;27.64;32.58
7746;BME280;3917;42.748;23.278;2022-09-14T13:39:29;95276.47;;;27.65;32.00
7746;BME280;3917;42.748;23.278;2022-09-14T13:41:57;95271.47;;;27.59;33.10
7746;BME280;3917;42.748;23.278;2022-09-14T13:44:28;95281.78;;;27.79;32.38
7746;BME280;3917;42.748;23.278;2022-09-14T13:46:57;95281.41;;;27.89;31.94
7746;BME280;3917;42.748;23.278;2022-09-14T13:49:27;95278.94;;;27.88;32.43
7746;BME280;3917;42.748;23.278;2022-09-14T13:52:22;95270.78;;;27.91;32.48
7746;BME280;3917;42.748;23.278;2022-09-14T13:54:56;95277.06;;;28.00;32.00
7746;BME280;3917;42.748;23.278;2022-09-14T13:57:33;95273.94;;;28.02;32.51
7746;BME280;3917;42.748;23.278;2022-09-14T14:00:18;95263.69;;;28.02;32.63
7746;BME280;3917;42.748;23.278;2022-09-14T14:02:46;95256.84;;;28.00;32.50
7746;BME280;3917;42.748;23.278;2022-09-14T14:05:21;95258.81;;;27.99;32.21
7746;BME280;3917;42.748;23.278;2022-09-14T14:07:49;95249.56;;;27.95;31.63
7746;BME280;3917;42.748;23.278;2022-09-14T14:10:26;95261.25;;;27.80;31.79
7746;BME280;3917;42.748;23.278;2022-09-14T14:12:54;95261.91;;;27.77;31.64
7746;BME280;3917;42.748;23.278;2022-09-14T14:15:37;95245.81;;;27.70;32.36
7746;BME280;3917;42.748;23.278;2022-09-14T14:18:38;95248.81;;;27.86;31.70
7746;BME280;3917;42.748;23.278;2022-09-14T14:21:15;95227.09;;;27.67;31.45
7746;BME280;3917;42.748;23.278;2022-09-14T14:23:42;95256.78;;;27.88;32.36
7746;BME280;3917;42.748;23.278;2022-09-14T14:26:13;95255.28;;;27.90;31.29
7746;BME280;3917;42.748;23.278;2022-09-14T14:28:41;95246.66;;;27.92;31.69
7746;BME280;3917;42.748;23.278;2022-09-14T14:31:15;95232.38;;;27.81;31.52
7746;BME280;3917;42.748;23.278;2022-09-14T14:33:48;95226.06;;;27.72;31.16
7746;BME280;3917;42.748;23.278;2022-09-14T14:36:16;95233.66;;;27.84;31.06
7746;BME280;3917;42.748;23.278;2022-09-14T14:38:44;95225.69;;;27.82;31.41
7746;BME280;3917;42.748;23.278;2022-09-14T14:41:15;95229.66;;;27.93;31.22
7746;BME280;3917;42.748;23.278;2022-09-14T14:43:45;95229.88;;;27.88;31.03
7746;BME280;3917;42.748;23.278;2022-09-14T14:46:14;95232.03;;;27.83;31.24
7746;BME280;3917;42.748;23.278;2022-09-14T14:48:42;95234.13;;;27.86;31.70
7746;BME280;3917;42.748;23.278;2022-09-14T14:51:12;95213.38;;;27.71;31.75
7746;BME280;3917;42.748;23.278;2022-09-14T14:53:39;95221.78;;;27.83;31.21
7746;BME280;3917;42.748;23.278;2022-09-14T14:56:09;95223.38;;;27.84;31.45
7746;BME280;3917;42.748;23.278;2022-09-14T14:58:43;95225.69;;;27.82;31.64
7746;BME280;3917;42.748;23.278;2022-09-14T15:01:10;95207.16;;;27.74;32.07
7746;BME280;3917;42.748;23.278;2022-09-14T15:03:38;95220.34;;;27.77;31.42
7746;BME280;3917;42.748;23.278;2022-09-14T15:06:20;95207.34;;;27.69;31.35
7746;BME280;3917;42.748;23.278;2022-09-14T15:08:51;95217.50;;;27.65;31.56
7746;BME280;3917;42.748;23.278;2022-09-14T15:11:19;95212.63;;;27.62;31.71
7746;BME280;3917;42.748;23.278;2022-09-14T15:13:47;95216.06;;;27.59;32.08
7746;BME280;3917;42.748;23.278;2022-09-14T15:16:14;95217.16;;;27.37;32.53
7746;BME280;3917;42.748;23.278;2022-09-14T15:18:42;95215.56;;;27.27;32.60
7746;BME280;3917;42.748;23.278;2022-09-14T15:21:09;95201.63;;;27.15;33.21
7746;BME280;3917;42.748;23.278;2022-09-14T15:23:36;95207.47;;;27.22;33.27
7746;BME280;3917;42.748;23.278;2022-09-14T15:26:03;95197.25;;;27.06;33.17
7746;BME280;3917;42.748;23.278;2022-09-14T15:28:30;95200.66;;;27.11;33.53
7746;BME280;3917;42.748;23.278;2022-09-14T15:31:01;95192.69;;;27.10;33.49
7746;BME280;3917;42.748;23.278;2022-09-14T15:33:28;95202.59;;;27.19;33.99
7746;BME280;3917;42.748;23.278;2022-09-14T15:35:55;95205.53;;;27.14;34.40
7746;BME280;3917;42.748;23.278;2022-09-14T15:38:22;95196.94;;;27.07;34.37
7746;BME280;3917;42.748;23.278;2022-09-14T15:40:49;95200.66;;;27.11;34.60
7746;BME280;3917;42.748;23.278;2022-09-14T15:43:17;95193.22;;;27.03;34.60
7746;BME280;3917;42.748;23.278;2022-09-14T15:45:43;95201.03;;;27.01;34.23
7746;BME280;3917;42.748;23.278;2022-09-14T15:48:13;95195.50;;;27.01;35.67
7746;BME280;3917;42.748;23.278;2022-09-14T15:50:41;95194.38;;;26.94;35.33
7746;BME280;3917;42.748;23.278;2022-09-14T15:53:08;95179.63;;;26.81;36.01
7746;BME280;3917;42.748;23.278;2022-09-14T15:55:37;95185.31;;;26.85;35.56
7746;BME280;3917;42.748;23.278;2022-09-14T15:58:05;95188.91;;;26.77;35.52
7746;BME280;3917;42.748;23.278;2022-09-14T16:00:32;95196.56;;;26.71;36.36
7746;BME280;3917;42.748;23.278;2022-09-14T16:02:59;95200.31;;;26.66;36.83
7746;BME280;3917;42.748;23.278;2022-09-14T16:05:27;95193.38;;;26.52;37.21
7746;BME280;3917;42.748;23.278;2022-09-14T16:07:54;95192.09;;;26.41;36.51
7746;BME280;3917;42.748;23.278;2022-09-14T16:10:22;95188.22;;;26.07;37.51
7746;BME280;3917;42.748;23.278;2022-09-14T16:12:51;95199.59;;;25.97;37.15
7746;BME280;3917;42.748;23.278;2022-09-14T16:15:18;95203.19;;;25.89;37.77
7746;BME280;3917;42.748;23.278;2022-09-14T16:17:48;95201.84;;;25.78;38.04
7746;BME280;3917;42.748;23.278;2022-09-14T16:20:15;95183.00;;;25.63;37.83
7746;BME280;3917;42.748;23.278;2022-09-14T16:22:43;95204.78;;;25.56;38.49
7746;BME280;3917;42.748;23.278;2022-09-14T16:25:10;95200.00;;;25.39;38.24
7746;BME280;3917;42.748;23.278;2022-09-14T16:27:37;95209.69;;;25.11;39.36
7746;BME280;3917;42.748;23.278;2022-09-14T16:30:06;95204.00;;;25.07;39.12
7746;BME280;3917;42.748;23.278;2022-09-14T16:32:33;95199.56;;;24.98;38.96
7746;BME280;3917;42.748;23.278;2022-09-14T16:34:59;95175.13;;;24.74;40.04
7746;BME280;3917;42.748;23.278;2022-09-14T16:37:26;95208.06;;;24.79;39.71
7746;BME280;3917;42.748;23.278;2022-09-14T16:39:54;95208.97;;;24.66;39.66
7746;BME280;3917;42.748;23.278;2022-09-14T16:42:21;95188.28;;;24.46;40.12
7746;BME280;3917;42.748;23.278;2022-09-14T16:44:48;95204.34;;;24.44;40.11
7746;BME280;3917;42.748;23.278;2022-09-14T16:47:15;95201.63;;;24.31;40.17
7746;BME280;3917;42.748;23.278;2022-09-14T16:49:42;95162.75;;;24.10;40.29
7746;BME280;3917;42.748;23.278;2022-09-14T16:52:08;95206.53;;;24.34;40.33
7746;BME280;3917;42.748;23.278;2022-09-14T16:54:35;95185.53;;;24.24;40.34
7746;BME280;3917;42.748;23.278;2022-09-14T16:57:03;95196.91;;;24.23;40.57
7746;BME280;3917;42.748;23.278;2022-09-14T16:59:30;95199.28;;;24.16;40.78
7746;BME280;3917;42.748;23.278;2022-09-14T17:01:57;95196.72;;;24.05;41.01
7746;BME280;3917;42.748;23.278;2022-09-14T17:04:24;95195.56;;;23.98;40.97
7746;BME280;3917;42.748;23.278;2022-09-14T17:06:51;95200.75;;;23.99;41.33
7746;BME280;3917;42.748;23.278;2022-09-14T17:09:22;95196.81;;;23.92;41.91
7746;BME280;3917;42.748;23.278;2022-09-14T17:11:49;95208.63;;;23.70;42.50
7746;BME280;3917;42.748;23.278;2022-09-14T17:14:19;95207.66;;;23.39;43.10
7746;BME280;3917;42.748;23.278;2022-09-14T17:16:46;95201.75;;;23.32;42.57
7746;BME280;3917;42.748;23.278;2022-09-14T17:19:14;95205.63;;;23.31;42.68
7746;BME280;3917;42.748;23.278;2022-09-14T17:21:42;95211.75;;;23.28;42.94
7746;BME280;3917;42.748;23.278;2022-09-14T17:24:10;95214.19;;;23.16;43.79
7746;BME280;3917;42.748;23.278;2022-09-14T17:26:37;95220.00;;;23.01;44.09
7746;BME280;3917;42.748;23.278;2022-09-14T17:29:04;95215.25;;;22.92;44.21
7746;BME280;3917;42.748;23.278;2022-09-14T17:31:35;95221.25;;;22.94;44.08
7746;BME280;3917;42.748;23.278;2022-09-14T17:34:04;95220.63;;;22.98;43.99
7746;BME280;3917;42.748;23.278;2022-09-14T17:36:31;95215.66;;;22.72;45.24
7746;BME280;3917;42.748;23.278;2022-09-14T17:39:06;95222.41;;;22.61;46.24
7746;BME280;3917;42.748;23.278;2022-09-14T17:41:33;95213.94;;;22.44;46.28
7746;BME280;3917;42.748;23.278;2022-09-14T17:44:08;95214.88;;;22.53;45.21
7746;BME280;3917;42.748;23.278;2022-09-14T17:46:36;95216.88;;;22.66;44.91
7746;BME280;3917;42.748;23.278;2022-09-14T17:49:03;95217.44;;;22.63;45.35
7746;BME280;3917;42.748;23.278;2022-09-14T17:51:31;95222.13;;;22.63;45.05
7746;BME280;3917;42.748;23.278;2022-09-14T17:54:00;95201.13;;;22.53;44.71
7746;BME280;3917;42.748;23.278;2022-09-14T17:56:28;95213.06;;;22.62;44.59
7746;BME280;3917;42.748;23.278;2022-09-14T17:59:06;95190.75;;;22.50;45.15
7746;BME280;3917;42.748;23.278;2022-09-14T18:01:33;95206.31;;;22.41;45.17
7746;BME280;3917;42.748;23.278;2022-09-14T18:04:03;95211.31;;;22.39;45.21
7746;BME280;3917;42.748;23.278;2022-09-14T18:06:32;95227.69;;;22.44;45.00
7746;BME280;3917;42.748;23.278;2022-09-14T18:09:03;95229.00;;;22.33;45.77
7746;BME280;3917;42.748;23.278;2022-09-14T18:11:30;95231.44;;;22.34;45.28
7746;BME280;3917;42.748;23.278;2022-09-14T18:13:57;95214.81;;;22.26;45.47
7746;BME280;3917;42.748;23.278;2022-09-14T18:16:25;95222.28;;;22.39;44.36
7746;BME280;3917;42.748;23.278;2022-09-14T18:18:52;95222.16;;;22.76;42.96
7746;BME280;3917;42.748;23.278;2022-09-14T18:21:20;95210.78;;;22.97;42.50
7746;BME280;3917;42.748;23.278;2022-09-14T18:23:50;95228.88;;;23.25;41.84
7746;BME280;3917;42.748;23.278;2022-09-14T18:26:17;95226.72;;;23.22;41.89
7746;BME280;3917;42.748;23.278;2022-09-14T18:28:53;95227.16;;;23.02;42.91
7746;BME280;3917;42.748;23.278;2022-09-14T18:31:23;95227.75;;;22.85;43.26
7746;BME280;3917;42.748;23.278;2022-09-14T18:33:52;95226.59;;;22.59;43.80
7746;BME280;3917;42.748;23.278;2022-09-14T18:36:21;95239.72;;;22.16;46.10
7746;BME280;3917;42.748;23.278;2022-09-14T18:38:48;95260.31;;;22.00;46.17
7746;BME280;3917;42.748;23.278;2022-09-14T18:41:18;95258.16;;;21.97;46.68
7746;BME280;3917;42.748;23.278;2022-09-14T18:43:46;95255.19;;;21.74;47.41
7746;BME280;3917;42.748;23.278;2022-09-14T18:46:15;95255.63;;;21.63;47.54
7746;BME280;3917;42.748;23.278;2022-09-14T18:48:42;95248.81;;;21.60;47.80
7746;BME280;3917;42.748;23.278;2022-09-14T18:51:09;95250.13;;;21.44;47.65
7746;BME280;3917;42.748;23.278;2022-09-14T18:53:38;95249.91;;;21.41;47.81
7746;BME280;3917;42.748;23.278;2022-09-14T18:56:08;95255.38;;;21.41;48.06
7746;BME280;3917;42.748;23.278;2022-09-14T18:58:40;95260.00;;;21.21;48.38
7746;BME280;3917;42.748;23.278;2022-09-14T19:01:08;95267.19;;;20.94;50.34
7746;BME280;3917;42.748;23.278;2022-09-14T19:03:36;95266.81;;;20.76;50.51
7746;BME280;3917;42.748;23.278;2022-09-14T19:06:05;95288.75;;;20.76;50.65
7746;BME280;3917;42.748;23.278;2022-09-14T19:08:32;95290.56;;;20.62;51.28
7746;BME280;3917;42.748;23.278;2022-09-14T19:11:04;95301.00;;;20.60;51.28
7746;BME280;3917;42.748;23.278;2022-09-14T19:13:33;95301.75;;;20.37;53.05
7746;BME280;3917;42.748;23.278;2022-09-14T19:16:04;95303.47;;;20.23;53.16
7746;BME280;3917;42.748;23.278;2022-09-14T19:18:32;95301.28;;;20.30;52.83
7746;BME280;3917;42.748;23.278;2022-09-14T19:21:04;95296.19;;;20.47;51.37
7746;BME280;3917;42.748;23.278;2022-09-14T19:23:31;95291.19;;;20.54;50.89
7746;BME280;3917;42.748;23.278;2022-09-14T19:26:02;95289.47;;;20.63;51.04
7746;BME280;3917;42.748;23.278;2022-09-14T19:28:30;95291.06;;;20.64;51.09
7746;BME280;3917;42.748;23.278;2022-09-14T19:30:57;95298.19;;;19.98;54.51
7746;BME280;3917;42.748;23.278;2022-09-14T19:33:24;95302.63;;;19.94;54.30
7746;BME280;3917;42.748;23.278;2022-09-14T19:35:51;95308.66;;;19.91;53.88
7746;BME280;3917;42.748;23.278;2022-09-14T19:38:20;95309.03;;;19.79;54.39
7746;BME280;3917;42.748;23.278;2022-09-14T19:40:50;95316.38;;;19.84;53.54
7746;BME280;3917;42.748;23.278;2022-09-14T19:43:17;95294.00;;;19.71;53.86
7746;BME280;3917;42.748;23.278;2022-09-14T19:45:47;95307.75;;;19.61;55.14
7746;BME280;3917;42.748;23.278;2022-09-14T19:48:16;95322.22;;;19.67;54.62
7746;BME280;3917;42.748;23.278;2022-09-14T19:50:43;95321.41;;;19.61;55.18
7746;BME280;3917;42.748;23.278;2022-09-14T19:53:10;95329.75;;;19.31;55.47
7746;BME280;3917;42.748;23.278;2022-09-14T19:55:37;95330.34;;;19.23;55.30
7746;BME280;3917;42.748;23.278;2022-09-14T19:58:05;95307.94;;;19.16;55.09
7746;BME280;3917;42.748;23.278;2022-09-14T20:00:32;95334.09;;;19.37;54.86
7746;BME280;3917;42.748;23.278;2022-09-14T20:03:00;95336.03;;;19.32;55.39
7746;BME280;3917;42.748;23.278;2022-09-14T20:05:30;95347.75;;;19.37;54.86
7746;BME280;3917;42.748;23.278;2022-09-14T20:08:00;95324.88;;;19.18;54.82
7746;BME280;3917;42.748;23.278;2022-09-14T20:10:33;95308.00;;;19.01;54.89
7746;BME280;3917;42.748;23.278;2022-09-14T20:13:00;95354.91;;;19.28;54.50
7746;BME280;3917;42.748;23.278;2022-09-14T20:15:27;95374.06;;;19.33;55.08
7746;BME280;3917;42.748;23.278;2022-09-14T20:17:54;95374.63;;;19.20;55.78
7746;BME280;3917;42.748;23.278;2022-09-14T20:20:22;95380.38;;;19.24;54.77
7746;BME280;3917;42.748;23.278;2022-09-14T20:22:49;95362.66;;;19.06;55.11
7746;BME280;3917;42.748;23.278;2022-09-14T20:25:16;95350.06;;;19.05;54.88
7746;BME280;3917;42.748;23.278;2022-09-14T20:27:45;95344.38;;;18.91;55.26
7746;BME280;3917;42.748;23.278;2022-09-14T20:30:12;95350.97;;;18.85;55.88
7746;BME280;3917;42.748;23.278;2022-09-14T20:32:39;95356.66;;;18.89;55.35
7746;BME280;3917;42.748;23.278;2022-09-14T20:35:06;95351.19;;;18.89;55.81
7746;BME280;3917;42.748;23.278;2022-09-14T20:37:35;95355.00;;;18.98;55.08